sensor_id;sensor_type;location;lat;lon;timestamp;temperature;humidity
1592;DHT22;789;51.612;7.510;2023-05-21T00:01:34;16.00;1.00
1592;DHT22;789;51.612;7.510;2023-05-21T00:04:01;15.90;1.00
1592;DHT22;789;51.612;7.510;2023-05-21T00:06:27;16.00;1.00
1592;DHT22;789;51.612;7.510;2023-05-21T00:08:56;15.90;1.00
1592;DHT22;789;51.612;7.510;2023-05-21T00:11:24;15.90;1.00
1592;DHT22;789;51.612;7.510;2023-05-21T00:13:50;15.90;1.00
1592;DHT22;789;51.612;7.510;2023-05-21T00:16:17;15.90;1.00
1592;DHT22;789;51.612;7.510;2023-05-21T00:18:46;15.90;1.00
1592;DHT22;789;51.612;7.510;2023-05-21T00:21:14;15.90;1.00
1592;DHT22;789;51.612;7.510;2023-05-21T00:23:41;15.90;1.00
1592;DHT22;789;51.612;7.510;2023-05-21T00:26:11;15.80;1.00
1592;DHT22;789;51.612;7.510;2023-05-21T00:28:38;15.80;1.00
1592;DHT22;789;51.612;7.510;2023-05-21T00:31:04;15.80;1.00
1592;DHT22;789;51.612;7.510;2023-05-21T00:33:31;15.70;1.00
1592;DHT22;789;51.612;7.510;2023-05-21T00:35:58;15.70;1.00
1592;DHT22;789;51.612;7.510;2023-05-21T00:38:26;15.70;1.00
1592;DHT22;789;51.612;7.510;2023-05-21T00:40:58;15.70;1.00
1592;DHT22;789;51.612;7.510;2023-05-21T00:43:28;15.70;1.00
1592;DHT22;789;51.612;7.510;2023-05-21T00:45:57;15.70;1.00
1592;DHT22;789;51.612;7.510;2023-05-21T00:48:24;15.60;1.00
1592;DHT22;789;51.612;7.510;2023-05-21T00:50:51;15.70;1.00
1592;DHT22;789;51.612;7.510;2023-05-21T00:53:19;15.60;1.00
1592;DHT22;789;51.612;7.510;2023-05-21T00:55:46;15.60;1.00
1592;DHT22;789;51.612;7.510;2023-05-21T00:58:13;15.60;1.00
1592;DHT22;789;51.612;7.510;2023-05-21T01:00:46;15.50;1.00
1592;DHT22;789;51.612;7.510;2023-05-21T01:03:13;15.50;1.00
1592;DHT22;789;51.612;7.510;2023-05-21T01:05:41;15.50;1.00
1592;DHT22;789;51.612;7.510;2023-05-21T01:08:09;15.40;1.00
1592;DHT22;789;51.612;7.510;2023-05-21T01:10:37;15.40;1.00
1592;DHT22;789;51.612;7.510;2023-05-21T01:13:04;15.40;1.00
1592;DHT22;789;51.612;7.510;2023-05-21T01:15:31;15.40;1.00
1592;DHT22;789;51.612;7.510;2023-05-21T01:18:01;15.40;1.00
1592;DHT22;789;51.612;7.510;2023-05-21T01:20:28;15.40;1.00
1592;DHT22;789;51.612;7.510;2023-05-21T01:22:57;15.40;1.00
1592;DHT22;789;51.612;7.510;2023-05-21T01:25:25;15.40;1.00
1592;DHT22;789;51.612;7.510;2023-05-21T01:27:51;15.40;1.00
1592;DHT22;789;51.612;7.510;2023-05-21T01:30:19;15.40;1.00
1592;DHT22;789;51.612;7.510;2023-05-21T01:32:52;15.30;1.00
1592;DHT22;789;51.612;7.510;2023-05-21T01:35:21;15.30;1.00
1592;DHT22;789;51.612;7.510;2023-05-21T01:37:57;15.30;1.00
1592;DHT22;789;51.612;7.510;2023-05-21T01:40:30;15.30;1.00
1592;DHT22;789;51.612;7.510;2023-05-21T01:43:00;15.30;1.00
1592;DHT22;789;51.612;7.510;2023-05-21T01:45:30;15.30;1.00
1592;DHT22;789;51.612;7.510;2023-05-21T01:47:57;15.20;1.00
1592;DHT22;789;51.612;7.510;2023-05-21T01:50:37;15.20;1.00
1592;DHT22;789;51.612;7.510;2023-05-21T01:53:04;15.20;1.00
1592;DHT22;789;51.612;7.510;2023-05-21T01:55:32;15.20;1.00
1592;DHT22;789;51.612;7.510;2023-05-21T01:58:03;15.20;1.00
1592;DHT22;789;51.612;7.510;2023-05-21T02:00:30;15.20;1.00
1592;DHT22;789;51.612;7.510;2023-05-21T02:02:59;15.20;1.00
1592;DHT22;789;51.612;7.510;2023-05-21T02:05:25;15.20;1.00
1592;DHT22;789;51.612;7.510;2023-05-21T02:07:53;15.10;1.00
1592;DHT22;789;51.612;7.510;2023-05-21T02:10:20;15.10;1.00
1592;DHT22;789;51.612;7.510;2023-05-21T02:12:48;15.10;1.00
1592;DHT22;789;51.612;7.510;2023-05-21T02:15:15;15.10;1.00
1592;DHT22;789;51.612;7.510;2023-05-21T02:17:43;15.10;1.00
1592;DHT22;789;51.612;7.510;2023-05-21T02:20:11;15.10;1.00
1592;DHT22;789;51.612;7.510;2023-05-21T02:22:39;15.10;1.00
1592;DHT22;789;51.612;7.510;2023-05-21T02:25:07;15.10;1.00
1592;DHT22;789;51.612;7.510;2023-05-21T02:27:35;15.00;1.00
1592;DHT22;789;51.612;7.510;2023-05-21T02:30:05;15.00;1.00
1592;DHT22;789;51.612;7.510;2023-05-21T02:32:37;15.00;1.00
1592;DHT22;789;51.612;7.510;2023-05-21T02:35:08;15.00;1.00
1592;DHT22;789;51.612;7.510;2023-05-21T02:37:35;15.00;1.00
1592;DHT22;789;51.612;7.510;2023-05-21T02:40:03;15.00;1.00
1592;DHT22;789;51.612;7.510;2023-05-21T02:42:32;15.00;1.00
1592;DHT22;789;51.612;7.510;2023-05-21T02:45:02;15.00;1.00
1592;DHT22;789;51.612;7.510;2023-05-21T02:47:29;15.00;1.00
1592;DHT22;789;51.612;7.510;2023-05-21T02:49:58;15.00;1.00
1592;DHT22;789;51.612;7.510;2023-05-21T02:52:25;15.00;1.00
1592;DHT22;789;51.612;7.510;2023-05-21T02:54:52;15.00;1.00
1592;DHT22;789;51.612;7.510;2023-05-21T02:57:18;15.00;1.00
1592;DHT22;789;51.612;7.510;2023-05-21T02:59:46;14.90;1.00
1592;DHT22;789;51.612;7.510;2023-05-21T03:02:14;15.00;1.00
1592;DHT22;789;51.612;7.510;2023-05-21T03:04:41;15.00;1.00
1592;DHT22;789;51.612;7.510;2023-05-21T03:07:10;15.00;1.00
1592;DHT22;789;51.612;7.510;2023-05-21T03:09:38;14.90;1.00
1592;DHT22;789;51.612;7.510;2023-05-21T03:12:05;14.90;1.00
1592;DHT22;789;51.612;7.510;2023-05-21T03:14:32;14.90;1.00
1592;DHT22;789;51.612;7.510;2023-05-21T03:16:59;14.90;1.00
1592;DHT22;789;51.612;7.510;2023-05-21T03:19:29;14.90;1.00
1592;DHT22;789;51.612;7.510;2023-05-21T03:21:59;14.90;1.00
1592;DHT22;789;51.612;7.510;2023-05-21T03:24:25;14.90;1.00
1592;DHT22;789;51.612;7.510;2023-05-21T03:26:53;14.90;1.00
1592;DHT22;789;51.612;7.510;2023-05-21T03:29:20;14.90;1.00
1592;DHT22;789;51.612;7.510;2023-05-21T03:31:47;14.90;1.00
1592;DHT22;789;51.612;7.510;2023-05-21T03:34:14;14.90;1.00
1592;DHT22;789;51.612;7.510;2023-05-21T03:36:42;14.90;1.00
1592;DHT22;789;51.612;7.510;2023-05-21T03:39:09;14.90;1.00
1592;DHT22;789;51.612;7.510;2023-05-21T03:41:37;14.90;1.00
1592;DHT22;789;51.612;7.510;2023-05-21T03:44:04;14.90;1.00
1592;DHT22;789;51.612;7.510;2023-05-21T03:46:31;14.90;1.00
1592;DHT22;789;51.612;7.510;2023-05-21T03:48:57;14.90;1.00
1592;DHT22;789;51.612;7.510;2023-05-21T03:51:25;14.90;1.00
1592;DHT22;789;51.612;7.510;2023-05-21T03:53:53;14.90;1.00
1592;DHT22;789;51.612;7.510;2023-05-21T03:56:20;14.90;1.00
1592;DHT22;789;51.612;7.510;2023-05-21T03:58:47;14.90;1.00
1592;DHT22;789;51.612;7.510;2023-05-21T04:01:14;14.80;1.00
1592;DHT22;789;51.612;7.510;2023-05-21T04:03:42;14.80;1.00
1592;DHT22;789;51.612;7.510;2023-05-21T04:06:08;14.80;1.00
1592;DHT22;789;51.612;7.510;2023-05-21T04:08:38;14.80;1.00
1592;DHT22;789;51.612;7.510;2023-05-21T04:11:06;14.80;1.00
1592;DHT22;789;51.612;7.510;2023-05-21T04:13:33;14.80;1.00
1592;DHT22;789;51.612;7.510;2023-05-21T04:16:00;14.90;1.00
1592;DHT22;789;51.612;7.510;2023-05-21T04:18:27;14.90;1.00
1592;DHT22;789;51.612;7.510;2023-05-21T04:20:54;14.90;1.00
1592;DHT22;789;51.612;7.510;2023-05-21T04:23:21;14.90;1.00
1592;DHT22;789;51.612;7.510;2023-05-21T04:25:49;14.90;1.00
1592;DHT22;789;51.612;7.510;2023-05-21T04:28:17;14.90;1.00
1592;DHT22;789;51.612;7.510;2023-05-21T04:30:44;14.90;1.00
1592;DHT22;789;51.612;7.510;2023-05-21T04:33:11;14.90;1.00
1592;DHT22;789;51.612;7.510;2023-05-21T04:35:39;14.80;1.00
1592;DHT22;789;51.612;7.510;2023-05-21T04:38:08;14.90;1.00
1592;DHT22;789;51.612;7.510;2023-05-21T04:40:36;14.80;1.00
1592;DHT22;789;51.612;7.510;2023-05-21T04:43:04;14.80;1.00
1592;DHT22;789;51.612;7.510;2023-05-21T04:45:33;14.80;1.00
1592;DHT22;789;51.612;7.510;2023-05-21T04:48:00;14.80;1.00
1592;DHT22;789;51.612;7.510;2023-05-21T04:50:28;14.90;1.00
1592;DHT22;789;51.612;7.510;2023-05-21T04:52:55;14.90;1.00
1592;DHT22;789;51.612;7.510;2023-05-21T04:55:23;14.90;1.00
1592;DHT22;789;51.612;7.510;2023-05-21T04:57:50;14.90;1.00
1592;DHT22;789;51.612;7.510;2023-05-21T05:00:17;14.90;1.00
1592;DHT22;789;51.612;7.510;2023-05-21T05:02:45;14.90;1.00
1592;DHT22;789;51.612;7.510;2023-05-21T05:05:12;14.90;1.00
1592;DHT22;789;51.612;7.510;2023-05-21T05:07:39;14.90;1.00
1592;DHT22;789;51.612;7.510;2023-05-21T05:10:07;14.90;1.00
1592;DHT22;789;51.612;7.510;2023-05-21T05:12:34;14.90;1.00
1592;DHT22;789;51.612;7.510;2023-05-21T05:15:00;14.90;1.00
1592;DHT22;789;51.612;7.510;2023-05-21T05:17:27;14.90;1.00
1592;DHT22;789;51.612;7.510;2023-05-21T05:19:56;15.00;1.00
1592;DHT22;789;51.612;7.510;2023-05-21T05:22:22;15.00;1.00
1592;DHT22;789;51.612;7.510;2023-05-21T05:24:49;15.00;1.00
1592;DHT22;789;51.612;7.510;2023-05-21T05:27:16;15.10;1.00
1592;DHT22;789;51.612;7.510;2023-05-21T05:29:43;15.10;1.00
1592;DHT22;789;51.612;7.510;2023-05-21T05:32:10;15.10;1.00
1592;DHT22;789;51.612;7.510;2023-05-21T05:34:37;15.20;1.00
1592;DHT22;789;51.612;7.510;2023-05-21T05:37:05;15.20;1.00
1592;DHT22;789;51.612;7.510;2023-05-21T05:39:32;15.20;1.00
1592;DHT22;789;51.612;7.510;2023-05-21T05:42:03;15.30;1.00
1592;DHT22;789;51.612;7.510;2023-05-21T05:44:30;15.40;1.00
1592;DHT22;789;51.612;7.510;2023-05-21T05:46:57;15.40;1.00
1592;DHT22;789;51.612;7.510;2023-05-21T05:49:24;15.40;1.00
1592;DHT22;789;51.612;7.510;2023-05-21T05:51:51;15.50;1.00
1592;DHT22;789;51.612;7.510;2023-05-21T05:54:20;15.60;1.00
1592;DHT22;789;51.612;7.510;2023-05-21T05:56:46;15.60;1.00
1592;DHT22;789;51.612;7.510;2023-05-21T05:59:13;15.70;1.00
1592;DHT22;789;51.612;7.510;2023-05-21T06:01:40;15.70;1.00
1592;DHT22;789;51.612;7.510;2023-05-21T06:04:07;15.80;1.00
1592;DHT22;789;51.612;7.510;2023-05-21T06:06:34;15.80;1.00
1592;DHT22;789;51.612;7.510;2023-05-21T06:09:03;15.80;1.00
1592;DHT22;789;51.612;7.510;2023-05-21T06:11:32;15.90;1.00
1592;DHT22;789;51.612;7.510;2023-05-21T06:14:00;15.90;1.00
1592;DHT22;789;51.612;7.510;2023-05-21T06:16:27;16.00;1.00
1592;DHT22;789;51.612;7.510;2023-05-21T06:18:55;16.10;1.00
1592;DHT22;789;51.612;7.510;2023-05-21T06:21:22;16.20;1.00
1592;DHT22;789;51.612;7.510;2023-05-21T06:23:49;16.30;1.00
1592;DHT22;789;51.612;7.510;2023-05-21T06:26:16;16.50;1.00
1592;DHT22;789;51.612;7.510;2023-05-21T06:28:44;16.50;1.00
1592;DHT22;789;51.612;7.510;2023-05-21T06:31:11;16.60;1.00
1592;DHT22;789;51.612;7.510;2023-05-21T06:33:38;16.60;1.00
1592;DHT22;789;51.612;7.510;2023-05-21T06:36:05;16.70;1.00
1592;DHT22;789;51.612;7.510;2023-05-21T06:38:32;16.80;1.00
1592;DHT22;789;51.612;7.510;2023-05-21T06:40:59;16.90;1.00
1592;DHT22;789;51.612;7.510;2023-05-21T06:43:26;17.00;1.00
1592;DHT22;789;51.612;7.510;2023-05-21T06:45:54;17.00;1.00
1592;DHT22;789;51.612;7.510;2023-05-21T06:48:21;17.00;1.00
1592;DHT22;789;51.612;7.510;2023-05-21T06:50:48;17.00;1.00
1592;DHT22;789;51.612;7.510;2023-05-21T06:53:15;17.00;1.00
1592;DHT22;789;51.612;7.510;2023-05-21T06:55:44;17.00;1.00
1592;DHT22;789;51.612;7.510;2023-05-21T06:58:11;17.00;1.00
1592;DHT22;789;51.612;7.510;2023-05-21T07:00:37;17.00;1.00
1592;DHT22;789;51.612;7.510;2023-05-21T07:03:06;17.10;1.00
1592;DHT22;789;51.612;7.510;2023-05-21T07:05:32;17.20;1.00
1592;DHT22;789;51.612;7.510;2023-05-21T07:07:59;17.40;1.00
1592;DHT22;789;51.612;7.510;2023-05-21T07:10:26;17.40;1.00
1592;DHT22;789;51.612;7.510;2023-05-21T07:12:53;17.50;1.00
1592;DHT22;789;51.612;7.510;2023-05-21T07:15:20;17.50;1.00
1592;DHT22;789;51.612;7.510;2023-05-21T07:17:47;17.60;1.00
1592;DHT22;789;51.612;7.510;2023-05-21T07:20:15;17.70;1.00
1592;DHT22;789;51.612;7.510;2023-05-21T07:22:42;17.80;1.00
1592;DHT22;789;51.612;7.510;2023-05-21T07:25:09;17.80;1.00
1592;DHT22;789;51.612;7.510;2023-05-21T07:27:36;17.90;1.00
1592;DHT22;789;51.612;7.510;2023-05-21T07:30:03;17.90;1.00
1592;DHT22;789;51.612;7.510;2023-05-21T07:32:30;18.00;1.00
1592;DHT22;789;51.612;7.510;2023-05-21T07:34:59;18.10;1.00
1592;DHT22;789;51.612;7.510;2023-05-21T07:37:28;18.10;1.00
1592;DHT22;789;51.612;7.510;2023-05-21T07:39:56;18.20;1.00
1592;DHT22;789;51.612;7.510;2023-05-21T07:42:25;18.40;1.00
1592;DHT22;789;51.612;7.510;2023-05-21T07:44:51;18.50;1.00
1592;DHT22;789;51.612;7.510;2023-05-21T07:47:18;18.50;1.00
1592;DHT22;789;51.612;7.510;2023-05-21T07:49:45;18.50;1.00
1592;DHT22;789;51.612;7.510;2023-05-21T07:52:15;18.60;1.00
1592;DHT22;789;51.612;7.510;2023-05-21T07:54:43;18.80;1.00
1592;DHT22;789;51.612;7.510;2023-05-21T07:57:10;18.80;1.00
1592;DHT22;789;51.612;7.510;2023-05-21T07:59:36;18.90;1.00
1592;DHT22;789;51.612;7.510;2023-05-21T08:02:03;18.90;1.00
1592;DHT22;789;51.612;7.510;2023-05-21T08:04:30;19.10;1.00
1592;DHT22;789;51.612;7.510;2023-05-21T08:06:58;19.20;1.00
1592;DHT22;789;51.612;7.510;2023-05-21T08:09:25;19.40;1.00
1592;DHT22;789;51.612;7.510;2023-05-21T08:11:55;19.60;1.00
1592;DHT22;789;51.612;7.510;2023-05-21T08:14:22;19.70;1.00
1592;DHT22;789;51.612;7.510;2023-05-21T08:16:49;20.00;1.00
1592;DHT22;789;51.612;7.510;2023-05-21T08:19:16;20.30;1.00
1592;DHT22;789;51.612;7.510;2023-05-21T08:21:42;20.50;1.00
1592;DHT22;789;51.612;7.510;2023-05-21T08:24:09;20.70;1.00
1592;DHT22;789;51.612;7.510;2023-05-21T08:26:36;20.90;1.00
1592;DHT22;789;51.612;7.510;2023-05-21T08:29:04;21.00;1.00
1592;DHT22;789;51.612;7.510;2023-05-21T08:31:33;21.20;1.00
1592;DHT22;789;51.612;7.510;2023-05-21T08:33:59;21.50;1.00
1592;DHT22;789;51.612;7.510;2023-05-21T08:36:26;21.70;1.00
1592;DHT22;789;51.612;7.510;2023-05-21T08:38:53;21.90;1.00
1592;DHT22;789;51.612;7.510;2023-05-21T08:41:20;22.10;1.00
1592;DHT22;789;51.612;7.510;2023-05-21T08:43:54;22.40;1.00
1592;DHT22;789;51.612;7.510;2023-05-21T08:46:23;22.90;1.00
1592;DHT22;789;51.612;7.510;2023-05-21T08:48:51;23.40;1.00
1592;DHT22;789;51.612;7.510;2023-05-21T08:51:21;23.90;1.00
1592;DHT22;789;51.612;7.510;2023-05-21T08:53:49;23.90;1.00
1592;DHT22;789;51.612;7.510;2023-05-21T08:56:27;24.10;1.00
1592;DHT22;789;51.612;7.510;2023-05-21T08:58:57;24.50;1.00
1592;DHT22;789;51.612;7.510;2023-05-21T09:01:35;24.90;1.00
1592;DHT22;789;51.612;7.510;2023-05-21T09:04:03;25.00;1.00
1592;DHT22;789;51.612;7.510;2023-05-21T09:06:31;25.10;1.00
1592;DHT22;789;51.612;7.510;2023-05-21T09:09:03;25.20;1.00
1592;DHT22;789;51.612;7.510;2023-05-21T09:11:32;25.20;1.00
1592;DHT22;789;51.612;7.510;2023-05-21T09:13:59;25.30;1.00
1592;DHT22;789;51.612;7.510;2023-05-21T09:16:27;25.40;1.00
1592;DHT22;789;51.612;7.510;2023-05-21T09:18:57;25.60;1.00
1592;DHT22;789;51.612;7.510;2023-05-21T09:21:26;25.40;1.00
1592;DHT22;789;51.612;7.510;2023-05-21T09:23:54;25.30;1.00
1592;DHT22;789;51.612;7.510;2023-05-21T09:26:21;25.30;1.00
1592;DHT22;789;51.612;7.510;2023-05-21T09:28:49;25.40;1.00
1592;DHT22;789;51.612;7.510;2023-05-21T09:31:16;25.60;1.00
1592;DHT22;789;51.612;7.510;2023-05-21T09:33:56;25.60;1.00
1592;DHT22;789;51.612;7.510;2023-05-21T09:36:23;25.70;1.00
1592;DHT22;789;51.612;7.510;2023-05-21T09:38:50;26.10;1.00
1592;DHT22;789;51.612;7.510;2023-05-21T09:41:17;26.40;1.00
1592;DHT22;789;51.612;7.510;2023-05-21T09:43:44;26.70;1.00
1592;DHT22;789;51.612;7.510;2023-05-21T09:46:11;26.80;1.00
1592;DHT22;789;51.612;7.510;2023-05-21T09:48:39;27.30;1.00
1592;DHT22;789;51.612;7.510;2023-05-21T09:51:12;27.90;1.00
1592;DHT22;789;51.612;7.510;2023-05-21T09:53:43;28.50;1.00
1592;DHT22;789;51.612;7.510;2023-05-21T09:56:10;28.90;1.00
1592;DHT22;789;51.612;7.510;2023-05-21T09:58:37;29.30;1.00
1592;DHT22;789;51.612;7.510;2023-05-21T10:01:05;30.20;1.00
1592;DHT22;789;51.612;7.510;2023-05-21T10:03:37;30.80;1.00
1592;DHT22;789;51.612;7.510;2023-05-21T10:06:06;30.80;1.00
1592;DHT22;789;51.612;7.510;2023-05-21T10:08:39;30.40;1.00
1592;DHT22;789;51.612;7.510;2023-05-21T10:11:08;29.50;1.00
1592;DHT22;789;51.612;7.510;2023-05-21T10:13:38;28.50;1.00
1592;DHT22;789;51.612;7.510;2023-05-21T10:16:07;27.70;1.00
1592;DHT22;789;51.612;7.510;2023-05-21T10:18:36;26.80;1.00
1592;DHT22;789;51.612;7.510;2023-05-21T10:21:03;26.20;1.00
1592;DHT22;789;51.612;7.510;2023-05-21T10:23:33;25.60;1.00
1592;DHT22;789;51.612;7.510;2023-05-21T10:26:07;25.10;1.00
1592;DHT22;789;51.612;7.510;2023-05-21T10:28:35;24.80;1.00
1592;DHT22;789;51.612;7.510;2023-05-21T10:31:02;24.70;1.00
1592;DHT22;789;51.612;7.510;2023-05-21T10:33:30;24.70;1.00
1592;DHT22;789;51.612;7.510;2023-05-21T10:35:58;24.70;1.00
1592;DHT22;789;51.612;7.510;2023-05-21T10:38:25;24.50;1.00
1592;DHT22;789;51.612;7.510;2023-05-21T10:40:53;24.30;1.00
1592;DHT22;789;51.612;7.510;2023-05-21T10:43:34;24.30;1.00
1592;DHT22;789;51.612;7.510;2023-05-21T10:46:17;23.90;1.00
1592;DHT22;789;51.612;7.510;2023-05-21T10:49:00;24.10;1.00
1592;DHT22;789;51.612;7.510;2023-05-21T10:51:37;24.20;1.00
1592;DHT22;789;51.612;7.510;2023-05-21T10:54:30;24.30;1.00
1592;DHT22;789;51.612;7.510;2023-05-21T10:57:07;24.40;1.00
1592;DHT22;789;51.612;7.510;2023-05-21T10:59:40;24.40;1.00
1592;DHT22;789;51.612;7.510;2023-05-21T11:02:10;24.60;1.00
1592;DHT22;789;51.612;7.510;2023-05-21T11:04:39;24.90;1.00
1592;DHT22;789;51.612;7.510;2023-05-21T11:07:08;25.10;1.00
1592;DHT22;789;51.612;7.510;2023-05-21T11:09:35;25.20;1.00
1592;DHT22;789;51.612;7.510;2023-05-21T11:12:02;25.30;1.00
1592;DHT22;789;51.612;7.510;2023-05-21T11:14:33;25.50;1.00
1592;DHT22;789;51.612;7.510;2023-05-21T11:17:02;25.60;1.00
1592;DHT22;789;51.612;7.510;2023-05-21T11:19:39;25.70;1.00
1592;DHT22;789;51.612;7.510;2023-05-21T11:22:07;25.80;1.00
1592;DHT22;789;51.612;7.510;2023-05-21T11:24:39;25.80;1.00
1592;DHT22;789;51.612;7.510;2023-05-21T11:27:06;25.70;1.00
1592;DHT22;789;51.612;7.510;2023-05-21T11:29:41;25.80;1.00
1592;DHT22;789;51.612;7.510;2023-05-21T11:32:13;25.80;1.00
1592;DHT22;789;51.612;7.510;2023-05-21T11:34:43;26.00;1.00
1592;DHT22;789;51.612;7.510;2023-05-21T11:37:35;26.10;1.00
1592;DHT22;789;51.612;7.510;2023-05-21T11:40:24;26.30;1.00
1592;DHT22;789;51.612;7.510;2023-05-21T11:42:53;26.30;1.00
1592;DHT22;789;51.612;7.510;2023-05-21T11:45:21;26.30;1.00
1592;DHT22;789;51.612;7.510;2023-05-21T11:47:50;26.00;1.00
1592;DHT22;789;51.612;7.510;2023-05-21T11:50:18;25.90;1.00
1592;DHT22;789;51.612;7.510;2023-05-21T11:52:45;25.90;1.00
1592;DHT22;789;51.612;7.510;2023-05-21T11:55:12;26.10;1.00
1592;DHT22;789;51.612;7.510;2023-05-21T11:57:41;26.20;1.00
1592;DHT22;789;51.612;7.510;2023-05-21T12:00:13;26.20;1.00
1592;DHT22;789;51.612;7.510;2023-05-21T12:02:45;26.10;1.00
1592;DHT22;789;51.612;7.510;2023-05-21T12:05:13;26.00;1.00
1592;DHT22;789;51.612;7.510;2023-05-21T12:07:40;26.00;1.00
1592;DHT22;789;51.612;7.510;2023-05-21T12:10:08;26.00;1.00
1592;DHT22;789;51.612;7.510;2023-05-21T12:12:35;25.90;1.00
1592;DHT22;789;51.612;7.510;2023-05-21T12:15:02;26.00;1.00
1592;DHT22;789;51.612;7.510;2023-05-21T12:17:29;26.10;1.00
1592;DHT22;789;51.612;7.510;2023-05-21T12:19:57;26.10;1.00
1592;DHT22;789;51.612;7.510;2023-05-21T12:22:27;26.20;1.00
1592;DHT22;789;51.612;7.510;2023-05-21T12:24:54;26.20;1.00
1592;DHT22;789;51.612;7.510;2023-05-21T12:27:22;26.30;1.00
1592;DHT22;789;51.612;7.510;2023-05-21T12:29:53;26.20;1.00
1592;DHT22;789;51.612;7.510;2023-05-21T12:32:31;26.20;1.00
1592;DHT22;789;51.612;7.510;2023-05-21T12:34:57;26.20;1.00
1592;DHT22;789;51.612;7.510;2023-05-21T12:37:27;26.20;1.00
1592;DHT22;789;51.612;7.510;2023-05-21T12:39:58;26.30;1.00
1592;DHT22;789;51.612;7.510;2023-05-21T12:42:26;26.10;1.00
1592;DHT22;789;51.612;7.510;2023-05-21T12:44:54;25.90;1.00
1592;DHT22;789;51.612;7.510;2023-05-21T12:47:22;25.80;1.00
1592;DHT22;789;51.612;7.510;2023-05-21T12:49:53;25.80;1.00
1592;DHT22;789;51.612;7.510;2023-05-21T12:52:22;25.80;1.00
1592;DHT22;789;51.612;7.510;2023-05-21T12:54:52;25.80;1.00
1592;DHT22;789;51.612;7.510;2023-05-21T12:57:20;25.90;1.00
1592;DHT22;789;51.612;7.510;2023-05-21T12:59:49;25.70;1.00
1592;DHT22;789;51.612;7.510;2023-05-21T13:02:19;25.60;1.00
1592;DHT22;789;51.612;7.510;2023-05-21T13:04:46;25.40;1.00
1592;DHT22;789;51.612;7.510;2023-05-21T13:07:14;25.50;1.00
1592;DHT22;789;51.612;7.510;2023-05-21T13:09:41;25.40;1.00
1592;DHT22;789;51.612;7.510;2023-05-21T13:12:12;25.30;1.00
1592;DHT22;789;51.612;7.510;2023-05-21T13:14:38;25.40;1.00
1592;DHT22;789;51.612;7.510;2023-05-21T13:17:05;25.40;1.00
1592;DHT22;789;51.612;7.510;2023-05-21T13:19:33;25.40;1.00
1592;DHT22;789;51.612;7.510;2023-05-21T13:22:00;25.50;1.00
1592;DHT22;789;51.612;7.510;2023-05-21T13:24:27;25.50;1.00
1592;DHT22;789;51.612;7.510;2023-05-21T13:26:53;25.50;1.00
1592;DHT22;789;51.612;7.510;2023-05-21T13:29:22;25.50;1.00
1592;DHT22;789;51.612;7.510;2023-05-21T13:31:48;25.40;1.00
1592;DHT22;789;51.612;7.510;2023-05-21T13:34:15;25.40;1.00
1592;DHT22;789;51.612;7.510;2023-05-21T13:36:42;25.40;1.00
1592;DHT22;789;51.612;7.510;2023-05-21T13:39:09;25.40;1.00
1592;DHT22;789;51.612;7.510;2023-05-21T13:41:37;25.40;1.00
1592;DHT22;789;51.612;7.510;2023-05-21T13:44:04;25.40;1.00
1592;DHT22;789;51.612;7.510;2023-05-21T13:46:35;25.40;1.00
1592;DHT22;789;51.612;7.510;2023-05-21T13:49:04;25.40;1.00
1592;DHT22;789;51.612;7.510;2023-05-21T13:51:31;25.40;1.00
1592;DHT22;789;51.612;7.510;2023-05-21T13:53:57;25.30;1.00
1592;DHT22;789;51.612;7.510;2023-05-21T13:56:24;25.20;1.00
1592;DHT22;789;51.612;7.510;2023-05-21T13:58:51;25.20;1.00
1592;DHT22;789;51.612;7.510;2023-05-21T14:01:18;25.10;1.00
1592;DHT22;789;51.612;7.510;2023-05-21T14:03:46;25.10;1.00
1592;DHT22;789;51.612;7.510;2023-05-21T14:06:13;25.10;1.00
1592;DHT22;789;51.612;7.510;2023-05-21T14:08:39;25.20;1.00
1592;DHT22;789;51.612;7.510;2023-05-21T14:11:06;25.30;1.00
1592;DHT22;789;51.612;7.510;2023-05-21T14:13:33;25.30;1.00
1592;DHT22;789;51.612;7.510;2023-05-21T14:16:03;25.20;1.00
1592;DHT22;789;51.612;7.510;2023-05-21T14:18:30;25.30;1.00
1592;DHT22;789;51.612;7.510;2023-05-21T14:20:58;25.30;1.00
1592;DHT22;789;51.612;7.510;2023-05-21T14:23:25;25.40;1.00
1592;DHT22;789;51.612;7.510;2023-05-21T14:25:52;25.50;1.00
1592;DHT22;789;51.612;7.510;2023-05-21T14:28:19;25.60;1.00
1592;DHT22;789;51.612;7.510;2023-05-21T14:30:46;25.60;1.00
1592;DHT22;789;51.612;7.510;2023-05-21T14:33:13;25.70;1.00
1592;DHT22;789;51.612;7.510;2023-05-21T14:35:40;25.70;1.00
1592;DHT22;789;51.612;7.510;2023-05-21T14:38:12;25.70;1.00
1592;DHT22;789;51.612;7.510;2023-05-21T14:40:39;25.60;1.00
1592;DHT22;789;51.612;7.510;2023-05-21T14:43:10;25.60;1.00
1592;DHT22;789;51.612;7.510;2023-05-21T14:45:37;25.40;1.00
1592;DHT22;789;51.612;7.510;2023-05-21T14:48:06;25.40;1.00
1592;DHT22;789;51.612;7.510;2023-05-21T14:50:34;25.30;1.00
1592;DHT22;789;51.612;7.510;2023-05-21T14:53:03;25.30;1.00
1592;DHT22;789;51.612;7.510;2023-05-21T14:55:42;25.30;1.00
1592;DHT22;789;51.612;7.510;2023-05-21T14:58:10;25.20;1.00
1592;DHT22;789;51.612;7.510;2023-05-21T15:00:42;25.10;1.00
1592;DHT22;789;51.612;7.510;2023-05-21T15:03:08;25.00;1.00
1592;DHT22;789;51.612;7.510;2023-05-21T15:05:37;25.00;1.00
1592;DHT22;789;51.612;7.510;2023-05-21T15:08:03;24.90;1.00
1592;DHT22;789;51.612;7.510;2023-05-21T15:10:35;24.90;1.00
1592;DHT22;789;51.612;7.510;2023-05-21T15:13:02;24.90;1.00
1592;DHT22;789;51.612;7.510;2023-05-21T15:15:28;24.90;1.00
1592;DHT22;789;51.612;7.510;2023-05-21T15:17:55;24.90;1.00
1592;DHT22;789;51.612;7.510;2023-05-21T15:20:22;24.80;1.00
1592;DHT22;789;51.612;7.510;2023-05-21T15:22:49;24.80;1.00
1592;DHT22;789;51.612;7.510;2023-05-21T15:25:16;24.80;1.00
1592;DHT22;789;51.612;7.510;2023-05-21T15:27:45;24.70;1.00
1592;DHT22;789;51.612;7.510;2023-05-21T15:30:12;24.70;1.00
1592;DHT22;789;51.612;7.510;2023-05-21T15:32:39;24.80;1.00
1592;DHT22;789;51.612;7.510;2023-05-21T15:35:06;24.80;1.00
1592;DHT22;789;51.612;7.510;2023-05-21T15:37:33;24.80;1.00
1592;DHT22;789;51.612;7.510;2023-05-21T15:40:00;24.70;1.00
1592;DHT22;789;51.612;7.510;2023-05-21T15:42:27;24.80;1.00
1592;DHT22;789;51.612;7.510;2023-05-21T15:44:57;24.80;1.00
1592;DHT22;789;51.612;7.510;2023-05-21T15:47:24;24.70;1.00
1592;DHT22;789;51.612;7.510;2023-05-21T15:49:51;24.70;1.00
1592;DHT22;789;51.612;7.510;2023-05-21T15:52:17;24.70;1.00
1592;DHT22;789;51.612;7.510;2023-05-21T15:54:45;24.60;1.00
1592;DHT22;789;51.612;7.510;2023-05-21T15:57:12;24.70;1.00
1592;DHT22;789;51.612;7.510;2023-05-21T15:59:39;24.60;1.00
1592;DHT22;789;51.612;7.510;2023-05-21T16:02:07;24.60;1.00
1592;DHT22;789;51.612;7.510;2023-05-21T16:04:35;24.70;1.00
1592;DHT22;789;51.612;7.510;2023-05-21T16:07:01;24.70;1.00
1592;DHT22;789;51.612;7.510;2023-05-21T16:09:28;24.70;1.00
1592;DHT22;789;51.612;7.510;2023-05-21T16:11:55;24.70;1.00
1592;DHT22;789;51.612;7.510;2023-05-21T16:14:22;24.70;1.00
1592;DHT22;789;51.612;7.510;2023-05-21T16:16:49;24.70;1.00
1592;DHT22;789;51.612;7.510;2023-05-21T16:19:17;24.70;1.00
1592;DHT22;789;51.612;7.510;2023-05-21T16:21:44;24.80;1.00
1592;DHT22;789;51.612;7.510;2023-05-21T16:24:11;24.80;1.00
1592;DHT22;789;51.612;7.510;2023-05-21T16:26:38;24.80;1.00
1592;DHT22;789;51.612;7.510;2023-05-21T16:29:05;24.90;1.00
1592;DHT22;789;51.612;7.510;2023-05-21T16:31:31;24.90;1.00
1592;DHT22;789;51.612;7.510;2023-05-21T16:33:58;24.80;1.00
1592;DHT22;789;51.612;7.510;2023-05-21T16:36:27;24.80;1.00
1592;DHT22;789;51.612;7.510;2023-05-21T16:38:53;24.80;1.00
1592;DHT22;789;51.612;7.510;2023-05-21T16:41:20;24.80;1.00